Terminal Aerodrome Forecast
Issued by NWS Greer, SC

Current Version | Previous Version | Text Only | Print | Product List | Glossary On
Versions: 1 2 3 4 5 6 7 8 9 10 11 12 13 14 15 16 17
000
FTUS42 KGSP 261736
TAFGSP
TAF
KGSP 261736Z 2618/2718 09004KT P6SM SCT020 BKN035
      TEMPO 2618/2620 BKN020 BKN035
     FM262200 09005KT P6SM VCSH SCT045
     FM270200 11003KT P6SM SCT050
     FM271000 20003KT 5SM BR SCT010 BKN045
     FM271400 21006KT P6SM SCT080=

USA.gov is the U.S. government's official web portal to all federal, state and local government web resources and services.